Willow Beach, Arizona
Current Conditions -  °F | °C
As of 6:51 AM on Sunday 21 Dec 2014 (Local Time) from KIGM Reporting Station
Clear Clear  
Wind Chill: 28°   Ceiling: Unl
Heat Index: 34°   Visibility: NA
Dew Point: 31°   Wind: 7mph
Humidity: 89%   Direction: 120°ESE
Pressure: 30.13"   Gusts: NA
Location:  35.19°N, 114.05°W
Report Text: KIGM 211351Z AUTO 12006KT CLR 01/M01 A3013 RMK AO2 SLP186 T00111006 $
Loading
Personal Weather Stations






























Interactive Weather Map New forecast layout! Learn more

10-Day Weather Forecast

Advertisements
Track Severe Weather on mobile